sensor_id;sensor_type;location;lat;lon;timestamp;temperature;humidity
70830;SHT30;58451;51.550;7.208;2022-12-07T00:01:14;5.98;83.30
70830;SHT30;58451;51.550;7.208;2022-12-07T00:02:55;5.97;83.32
70830;SHT30;58451;51.550;7.208;2022-12-07T00:04:27;5.95;83.32
70830;SHT30;58451;51.550;7.208;2022-12-07T00:06:00;5.95;83.32
70830;SHT30;58451;51.550;7.208;2022-12-07T00:07:35;5.93;83.37
70830;SHT30;58451;51.550;7.208;2022-12-07T00:09:13;5.95;83.32
70830;SHT30;58451;51.550;7.208;2022-12-07T00:10:47;5.95;83.52
70830;SHT30;58451;51.550;7.208;2022-12-07T00:14:17;5.94;83.52
70830;SHT30;58451;51.550;7.208;2022-12-07T00:15:52;5.93;83.43
70830;SHT30;58451;51.550;7.208;2022-12-07T00:17:24;5.93;83.43
70830;SHT30;58451;51.550;7.208;2022-12-07T00:18:55;5.95;83.42
70830;SHT30;58451;51.550;7.208;2022-12-07T00:20:28;5.94;83.40
70830;SHT30;58451;51.550;7.208;2022-12-07T00:22:00;5.93;83.45
70830;SHT30;58451;51.550;7.208;2022-12-07T00:23:32;5.93;83.50
70830;SHT30;58451;51.550;7.208;2022-12-07T00:25:09;5.92;83.52
70830;SHT30;58451;51.550;7.208;2022-12-07T00:26:41;5.90;83.50
70830;SHT30;58451;51.550;7.208;2022-12-07T00:28:13;5.89;83.47
70830;SHT30;58451;51.550;7.208;2022-12-07T00:29:44;5.89;83.50
70830;SHT30;58451;51.550;7.208;2022-12-07T00:31:16;5.89;83.57
70830;SHT30;58451;51.550;7.208;2022-12-07T00:32:50;5.88;83.50
70830;SHT30;58451;51.550;7.208;2022-12-07T00:34:21;5.88;83.50
70830;SHT30;58451;51.550;7.208;2022-12-07T00:35:56;5.86;83.57
70830;SHT30;58451;51.550;7.208;2022-12-07T00:37:28;5.86;83.58
70830;SHT30;58451;51.550;7.208;2022-12-07T00:38:59;5.86;83.58
70830;SHT30;58451;51.550;7.208;2022-12-07T00:40:32;5.86;83.53
70830;SHT30;58451;51.550;7.208;2022-12-07T00:42:03;5.86;83.50
70830;SHT30;58451;51.550;7.208;2022-12-07T00:43:35;5.85;83.57
70830;SHT30;58451;51.550;7.208;2022-12-07T00:45:06;5.84;83.77
70830;SHT30;58451;51.550;7.208;2022-12-07T00:46:38;5.84;83.72
70830;SHT30;58451;51.550;7.208;2022-12-07T00:48:11;5.83;83.72
70830;SHT30;58451;51.550;7.208;2022-12-07T00:49:42;5.84;83.73
70830;SHT30;58451;51.550;7.208;2022-12-07T00:51:14;5.84;83.70
70830;SHT30;58451;51.550;7.208;2022-12-07T00:52:49;5.85;83.68
70830;SHT30;58451;51.550;7.208;2022-12-07T00:54:20;5.84;83.70
70830;SHT30;58451;51.550;7.208;2022-12-07T00:55:53;5.84;83.70
70830;SHT30;58451;51.550;7.208;2022-12-07T00:57:26;5.84;83.70
70830;SHT30;58451;51.550;7.208;2022-12-07T00:59:01;5.85;83.75
70830;SHT30;58451;51.550;7.208;2022-12-07T01:00:38;5.84;83.72
70830;SHT30;58451;51.550;7.208;2022-12-07T01:02:12;5.83;83.78
70830;SHT30;58451;51.550;7.208;2022-12-07T01:03:43;5.84;83.75
70830;SHT30;58451;51.550;7.208;2022-12-07T01:05:14;5.82;83.78
70830;SHT30;58451;51.550;7.208;2022-12-07T01:06:45;5.82;83.78
70830;SHT30;58451;51.550;7.208;2022-12-07T01:08:16;5.82;83.77
70830;SHT30;58451;51.550;7.208;2022-12-07T01:09:49;5.82;83.80
70830;SHT30;58451;51.550;7.208;2022-12-07T01:11:22;5.81;83.80
70830;SHT30;58451;51.550;7.208;2022-12-07T01:12:56;5.81;83.82
70830;SHT30;58451;51.550;7.208;2022-12-07T01:14:28;5.81;83.80
70830;SHT30;58451;51.550;7.208;2022-12-07T01:16:00;5.82;83.78
70830;SHT30;58451;51.550;7.208;2022-12-07T01:17:34;5.82;83.75
70830;SHT30;58451;51.550;7.208;2022-12-07T01:19:05;5.82;83.73
70830;SHT30;58451;51.550;7.208;2022-12-07T01:20:36;5.82;83.80
70830;SHT30;58451;51.550;7.208;2022-12-07T01:22:08;5.82;83.78
70830;SHT30;58451;51.550;7.208;2022-12-07T01:23:39;5.84;83.78
70830;SHT30;58451;51.550;7.208;2022-12-07T01:25:11;5.83;84.00
70830;SHT30;58451;51.550;7.208;2022-12-07T01:26:44;5.82;83.95
70830;SHT30;58451;51.550;7.208;2022-12-07T01:28:15;5.80;83.93
70830;SHT30;58451;51.550;7.208;2022-12-07T01:29:46;5.78;83.90
70830;SHT30;58451;51.550;7.208;2022-12-07T01:31:18;5.78;83.90
70830;SHT30;58451;51.550;7.208;2022-12-07T01:32:52;5.78;83.87
70830;SHT30;58451;51.550;7.208;2022-12-07T01:34:23;5.76;83.90
70830;SHT30;58451;51.550;7.208;2022-12-07T01:36:00;5.77;83.90
70830;SHT30;58451;51.550;7.208;2022-12-07T01:37:45;5.75;83.97
70830;SHT30;58451;51.550;7.208;2022-12-07T01:39:16;5.75;83.90
70830;SHT30;58451;51.550;7.208;2022-12-07T01:40:53;5.76;83.90
70830;SHT30;58451;51.550;7.208;2022-12-07T01:42:25;5.73;84.03
70830;SHT30;58451;51.550;7.208;2022-12-07T01:45:49;5.74;84.02
70830;SHT30;58451;51.550;7.208;2022-12-07T01:47:21;5.75;83.95
70830;SHT30;58451;51.550;7.208;2022-12-07T01:48:52;5.76;84.00
70830;SHT30;58451;51.550;7.208;2022-12-07T01:50:24;5.75;83.98
70830;SHT30;58451;51.550;7.208;2022-12-07T01:52:15;5.75;84.00
70830;SHT30;58451;51.550;7.208;2022-12-07T01:53:48;5.76;84.02
70830;SHT30;58451;51.550;7.208;2022-12-07T01:55:19;5.76;84.10
70830;SHT30;58451;51.550;7.208;2022-12-07T01:56:51;5.77;84.05
70830;SHT30;58451;51.550;7.208;2022-12-07T01:58:26;5.76;84.12
70830;SHT30;58451;51.550;7.208;2022-12-07T01:59:59;5.77;84.02
70830;SHT30;58451;51.550;7.208;2022-12-07T02:01:42;5.77;84.07
70830;SHT30;58451;51.550;7.208;2022-12-07T02:03:18;5.77;84.05
70830;SHT30;58451;51.550;7.208;2022-12-07T02:04:57;5.76;84.08
70830;SHT30;58451;51.550;7.208;2022-12-07T02:06:31;5.76;84.03
70830;SHT30;58451;51.550;7.208;2022-12-07T02:08:02;5.76;84.00
70830;SHT30;58451;51.550;7.208;2022-12-07T02:09:34;5.76;84.00
70830;SHT30;58451;51.550;7.208;2022-12-07T02:11:06;5.77;84.00
70830;SHT30;58451;51.550;7.208;2022-12-07T02:12:40;5.77;84.02
70830;SHT30;58451;51.550;7.208;2022-12-07T02:14:11;5.77;84.00
70830;SHT30;58451;51.550;7.208;2022-12-07T02:17:25;5.78;84.00
70830;SHT30;58451;51.550;7.208;2022-12-07T02:21:20;5.76;83.90
70830;SHT30;58451;51.550;7.208;2022-12-07T02:25:04;5.74;83.90
70830;SHT30;58451;51.550;7.208;2022-12-07T02:28:36;5.73;83.95
70830;SHT30;58451;51.550;7.208;2022-12-07T02:30:40;5.71;83.90
70830;SHT30;58451;51.550;7.208;2022-12-07T02:32:20;5.71;83.90
70830;SHT30;58451;51.550;7.208;2022-12-07T02:34:05;5.70;83.90
70830;SHT30;58451;51.550;7.208;2022-12-07T02:35:45;5.69;83.88
70830;SHT30;58451;51.550;7.208;2022-12-07T02:39:15;5.66;83.88
70830;SHT30;58451;51.550;7.208;2022-12-07T02:41:03;5.64;83.87
70830;SHT30;58451;51.550;7.208;2022-12-07T02:42:50;5.63;83.87
70830;SHT30;58451;51.550;7.208;2022-12-07T02:44:27;5.59;83.95
70830;SHT30;58451;51.550;7.208;2022-12-07T02:46:03;5.58;83.87
70830;SHT30;58451;51.550;7.208;2022-12-07T02:47:40;5.55;83.88
70830;SHT30;58451;51.550;7.208;2022-12-07T02:49:14;5.55;83.90
70830;SHT30;58451;51.550;7.208;2022-12-07T02:50:49;5.51;83.90
70830;SHT30;58451;51.550;7.208;2022-12-07T02:52:22;5.51;83.88
70830;SHT30;58451;51.550;7.208;2022-12-07T02:53:53;5.49;83.90
70830;SHT30;58451;51.550;7.208;2022-12-07T02:55:28;5.48;83.88
70830;SHT30;58451;51.550;7.208;2022-12-07T03:01:26;5.41;83.93
70830;SHT30;58451;51.550;7.208;2022-12-07T03:03:12;5.40;83.92
70830;SHT30;58451;51.550;7.208;2022-12-07T03:07:44;5.36;84.08
70830;SHT30;58451;51.550;7.208;2022-12-07T03:09:14;5.32;84.00
70830;SHT30;58451;51.550;7.208;2022-12-07T03:11:05;5.30;84.08
70830;SHT30;58451;51.550;7.208;2022-12-07T03:12:46;5.27;84.07
70830;SHT30;58451;51.550;7.208;2022-12-07T03:14:30;5.25;84.02
70830;SHT30;58451;51.550;7.208;2022-12-07T03:17:56;5.18;84.00
70830;SHT30;58451;51.550;7.208;2022-12-07T03:19:31;5.17;83.98
70830;SHT30;58451;51.550;7.208;2022-12-07T03:21:09;5.16;83.98
70830;SHT30;58451;51.550;7.208;2022-12-07T03:22:45;5.11;84.00
70830;SHT30;58451;51.550;7.208;2022-12-07T03:24:19;5.10;84.02
70830;SHT30;58451;51.550;7.208;2022-12-07T03:25:58;5.07;84.08
70830;SHT30;58451;51.550;7.208;2022-12-07T03:27:32;5.05;84.03
70830;SHT30;58451;51.550;7.208;2022-12-07T03:29:12;5.02;84.00
70830;SHT30;58451;51.550;7.208;2022-12-07T03:31:34;4.98;84.00
70830;SHT30;58451;51.550;7.208;2022-12-07T03:33:20;4.92;84.07
70830;SHT30;58451;51.550;7.208;2022-12-07T03:37:26;4.82;84.15
70830;SHT30;58451;51.550;7.208;2022-12-07T03:39:38;4.76;84.22
70830;SHT30;58451;51.550;7.208;2022-12-07T03:41:30;4.72;84.18
70830;SHT30;58451;51.550;7.208;2022-12-07T03:43:14;4.68;84.12
70830;SHT30;58451;51.550;7.208;2022-12-07T03:44:51;4.64;84.12
70830;SHT30;58451;51.550;7.208;2022-12-07T03:48:22;4.57;84.23
70830;SHT30;58451;51.550;7.208;2022-12-07T03:53:44;4.47;84.42
70830;SHT30;58451;51.550;7.208;2022-12-07T03:55:32;4.44;84.40
70830;SHT30;58451;51.550;7.208;2022-12-07T03:57:08;4.40;84.45
70830;SHT30;58451;51.550;7.208;2022-12-07T03:58:43;4.38;84.40
70830;SHT30;58451;51.550;7.208;2022-12-07T04:00:14;4.36;84.43
70830;SHT30;58451;51.550;7.208;2022-12-07T04:01:51;4.35;84.60
70830;SHT30;58451;51.550;7.208;2022-12-07T04:03:26;4.33;84.53
70830;SHT30;58451;51.550;7.208;2022-12-07T04:05:00;4.32;84.60
70830;SHT30;58451;51.550;7.208;2022-12-07T04:06:32;4.32;84.62
70830;SHT30;58451;51.550;7.208;2022-12-07T04:08:03;4.31;84.60
70830;SHT30;58451;51.550;7.208;2022-12-07T04:09:35;4.31;84.62
70830;SHT30;58451;51.550;7.208;2022-12-07T04:11:06;4.31;84.63
70830;SHT30;58451;51.550;7.208;2022-12-07T04:12:37;4.31;84.65
70830;SHT30;58451;51.550;7.208;2022-12-07T04:14:08;4.31;84.70
70830;SHT30;58451;51.550;7.208;2022-12-07T04:15:49;4.32;84.63
70830;SHT30;58451;51.550;7.208;2022-12-07T04:17:20;4.32;84.67
70830;SHT30;58451;51.550;7.208;2022-12-07T04:18:51;4.31;84.63
70830;SHT30;58451;51.550;7.208;2022-12-07T04:20:22;4.31;84.73
70830;SHT30;58451;51.550;7.208;2022-12-07T04:21:55;4.31;84.70
70830;SHT30;58451;51.550;7.208;2022-12-07T04:23:29;4.32;84.72
70830;SHT30;58451;51.550;7.208;2022-12-07T04:25:00;4.31;84.70
70830;SHT30;58451;51.550;7.208;2022-12-07T04:26:31;4.31;84.73
70830;SHT30;58451;51.550;7.208;2022-12-07T04:28:02;4.33;84.80
70830;SHT30;58451;51.550;7.208;2022-12-07T04:29:34;4.33;84.80
70830;SHT30;58451;51.550;7.208;2022-12-07T04:31:05;4.34;84.83
70830;SHT30;58451;51.550;7.208;2022-12-07T04:32:36;4.35;84.83
70830;SHT30;58451;51.550;7.208;2022-12-07T04:34:07;4.35;84.87
70830;SHT30;58451;51.550;7.208;2022-12-07T04:35:39;4.36;84.85
70830;SHT30;58451;51.550;7.208;2022-12-07T04:37:12;4.38;84.82
70830;SHT30;58451;51.550;7.208;2022-12-07T04:38:43;4.39;84.93
70830;SHT30;58451;51.550;7.208;2022-12-07T04:40:14;4.41;84.93
70830;SHT30;58451;51.550;7.208;2022-12-07T04:41:45;4.41;84.98
70830;SHT30;58451;51.550;7.208;2022-12-07T04:43:17;4.41;85.05
70830;SHT30;58451;51.550;7.208;2022-12-07T04:44:48;4.42;85.10
70830;SHT30;58451;51.550;7.208;2022-12-07T04:46:19;4.43;85.15
70830;SHT30;58451;51.550;7.208;2022-12-07T04:47:50;4.44;85.07
70830;SHT30;58451;51.550;7.208;2022-12-07T04:49:21;4.46;85.05
70830;SHT30;58451;51.550;7.208;2022-12-07T04:50:52;4.47;85.03
70830;SHT30;58451;51.550;7.208;2022-12-07T04:52:23;4.49;85.02
70830;SHT30;58451;51.550;7.208;2022-12-07T04:53:55;4.49;85.00
70830;SHT30;58451;51.550;7.208;2022-12-07T04:55:27;4.51;84.93
70830;SHT30;58451;51.550;7.208;2022-12-07T04:56:58;4.51;85.03
70830;SHT30;58451;51.550;7.208;2022-12-07T04:58:29;4.52;85.00
70830;SHT30;58451;51.550;7.208;2022-12-07T05:00:01;4.53;85.00
70830;SHT30;58451;51.550;7.208;2022-12-07T05:01:33;4.53;84.93
70830;SHT30;58451;51.550;7.208;2022-12-07T05:03:04;4.55;84.93
70830;SHT30;58451;51.550;7.208;2022-12-07T05:04:36;4.54;84.93
70830;SHT30;58451;51.550;7.208;2022-12-07T05:06:07;4.53;84.98
70830;SHT30;58451;51.550;7.208;2022-12-07T05:07:44;4.53;85.08
70830;SHT30;58451;51.550;7.208;2022-12-07T05:09:15;4.52;85.08
70830;SHT30;58451;51.550;7.208;2022-12-07T05:10:47;4.51;85.03
70830;SHT30;58451;51.550;7.208;2022-12-07T05:12:22;4.51;85.02
70830;SHT30;58451;51.550;7.208;2022-12-07T05:13:54;4.49;85.00
70830;SHT30;58451;51.550;7.208;2022-12-07T05:28:57;4.40;84.92
70830;SHT30;58451;51.550;7.208;2022-12-07T05:30:29;4.42;84.95
70830;SHT30;58451;51.550;7.208;2022-12-07T05:32:02;4.41;84.90
70830;SHT30;58451;51.550;7.208;2022-12-07T05:33:34;4.42;84.95
70830;SHT30;58451;51.550;7.208;2022-12-07T05:35:06;4.43;84.98
70830;SHT30;58451;51.550;7.208;2022-12-07T05:36:39;4.42;85.00
70830;SHT30;58451;51.550;7.208;2022-12-07T05:38:11;4.44;85.05
70830;SHT30;58451;51.550;7.208;2022-12-07T05:39:43;4.44;85.07
70830;SHT30;58451;51.550;7.208;2022-12-07T05:41:16;4.45;85.00
70830;SHT30;58451;51.550;7.208;2022-12-07T05:43:10;4.45;85.15
70830;SHT30;58451;51.550;7.208;2022-12-07T05:44:45;4.45;85.22
70830;SHT30;58451;51.550;7.208;2022-12-07T05:46:18;4.46;85.12
70830;SHT30;58451;51.550;7.208;2022-12-07T05:47:50;4.48;85.10
70830;SHT30;58451;51.550;7.208;2022-12-07T05:49:22;4.49;85.03
70830;SHT30;58451;51.550;7.208;2022-12-07T05:50:54;4.50;85.10
70830;SHT30;58451;51.550;7.208;2022-12-07T05:52:26;4.51;85.10
70830;SHT30;58451;51.550;7.208;2022-12-07T05:53:58;4.51;85.08
70830;SHT30;58451;51.550;7.208;2022-12-07T05:55:29;4.52;85.07
70830;SHT30;58451;51.550;7.208;2022-12-07T05:57:01;4.53;85.03
70830;SHT30;58451;51.550;7.208;2022-12-07T05:58:35;4.55;85.00
70830;SHT30;58451;51.550;7.208;2022-12-07T06:00:25;4.56;85.00
70830;SHT30;58451;51.550;7.208;2022-12-07T06:02:01;4.57;85.00
70830;SHT30;58451;51.550;7.208;2022-12-07T06:03:37;4.56;85.00
70830;SHT30;58451;51.550;7.208;2022-12-07T06:05:09;4.57;85.00
70830;SHT30;58451;51.550;7.208;2022-12-07T06:06:41;4.59;85.00
70830;SHT30;58451;51.550;7.208;2022-12-07T06:08:13;4.59;84.97
70830;SHT30;58451;51.550;7.208;2022-12-07T06:09:46;4.59;84.98
70830;SHT30;58451;51.550;7.208;2022-12-07T06:11:18;4.60;84.92
70830;SHT30;58451;51.550;7.208;2022-12-07T06:13:08;4.59;84.90
70830;SHT30;58451;51.550;7.208;2022-12-07T06:14:40;4.59;84.90
70830;SHT30;58451;51.550;7.208;2022-12-07T06:16:17;4.59;84.90
70830;SHT30;58451;51.550;7.208;2022-12-07T06:17:49;4.57;84.90
70830;SHT30;58451;51.550;7.208;2022-12-07T06:19:21;4.58;84.87
70830;SHT30;58451;51.550;7.208;2022-12-07T06:20:53;4.58;84.88
70830;SHT30;58451;51.550;7.208;2022-12-07T06:22:25;4.57;84.90
70830;SHT30;58451;51.550;7.208;2022-12-07T06:23:57;4.57;84.87
70830;SHT30;58451;51.550;7.208;2022-12-07T06:25:28;4.56;84.85
70830;SHT30;58451;51.550;7.208;2022-12-07T06:27:00;4.55;84.90
70830;SHT30;58451;51.550;7.208;2022-12-07T06:28:32;4.54;84.90
70830;SHT30;58451;51.550;7.208;2022-12-07T06:30:04;4.52;84.88
70830;SHT30;58451;51.550;7.208;2022-12-07T06:31:38;4.51;84.87
70830;SHT30;58451;51.550;7.208;2022-12-07T06:33:10;4.48;84.87
70830;SHT30;58451;51.550;7.208;2022-12-07T06:34:42;4.50;84.87
70830;SHT30;58451;51.550;7.208;2022-12-07T06:36:14;4.48;84.88
70830;SHT30;58451;51.550;7.208;2022-12-07T06:37:46;4.49;84.92
70830;SHT30;58451;51.550;7.208;2022-12-07T06:39:19;4.48;84.90
70830;SHT30;58451;51.550;7.208;2022-12-07T06:40:59;4.49;84.90
70830;SHT30;58451;51.550;7.208;2022-12-07T06:42:31;4.49;84.87
70830;SHT30;58451;51.550;7.208;2022-12-07T06:44:04;4.48;84.93
70830;SHT30;58451;51.550;7.208;2022-12-07T06:45:37;4.47;84.90
70830;SHT30;58451;51.550;7.208;2022-12-07T06:47:09;4.46;84.95
70830;SHT30;58451;51.550;7.208;2022-12-07T06:49:01;4.43;84.90
70830;SHT30;58451;51.550;7.208;2022-12-07T06:50:34;4.42;84.90
70830;SHT30;58451;51.550;7.208;2022-12-07T06:52:14;4.40;84.88
70830;SHT30;58451;51.550;7.208;2022-12-07T06:53:46;4.39;84.80
70830;SHT30;58451;51.550;7.208;2022-12-07T06:55:19;4.37;84.80
70830;SHT30;58451;51.550;7.208;2022-12-07T06:56:50;4.35;84.87
70830;SHT30;58451;51.550;7.208;2022-12-07T06:58:24;4.34;84.80
70830;SHT30;58451;51.550;7.208;2022-12-07T06:59:57;4.33;84.82
70830;SHT30;58451;51.550;7.208;2022-12-07T07:01:29;4.32;84.80
70830;SHT30;58451;51.550;7.208;2022-12-07T07:03:02;4.31;84.80
70830;SHT30;58451;51.550;7.208;2022-12-07T07:04:34;4.30;84.80
70830;SHT30;58451;51.550;7.208;2022-12-07T07:06:06;4.32;84.80
70830;SHT30;58451;51.550;7.208;2022-12-07T07:07:39;4.32;84.80
70830;SHT30;58451;51.550;7.208;2022-12-07T07:09:30;4.31;84.80
70830;SHT30;58451;51.550;7.208;2022-12-07T07:11:02;4.31;84.80
70830;SHT30;58451;51.550;7.208;2022-12-07T07:12:35;4.30;84.80
70830;SHT30;58451;51.550;7.208;2022-12-07T07:14:07;4.29;84.80
70830;SHT30;58451;51.550;7.208;2022-12-07T07:15:39;4.28;84.83
70830;SHT30;58451;51.550;7.208;2022-12-07T07:17:11;4.27;84.88
70830;SHT30;58451;51.550;7.208;2022-12-07T07:18:43;4.28;84.80
70830;SHT30;58451;51.550;7.208;2022-12-07T07:20:18;4.27;84.80
70830;SHT30;58451;51.550;7.208;2022-12-07T07:21:50;4.28;84.85
70830;SHT30;58451;51.550;7.208;2022-12-07T07:23:22;4.28;84.80
70830;SHT30;58451;51.550;7.208;2022-12-07T07:24:55;4.29;84.80
70830;SHT30;58451;51.550;7.208;2022-12-07T07:26:27;4.30;84.92
70830;SHT30;58451;51.550;7.208;2022-12-07T07:27:59;4.30;84.88
70830;SHT30;58451;51.550;7.208;2022-12-07T07:29:39;4.30;84.93
70830;SHT30;58451;51.550;7.208;2022-12-07T07:31:10;4.30;84.95
70830;SHT30;58451;51.550;7.208;2022-12-07T07:32:43;4.31;84.93
70830;SHT30;58451;51.550;7.208;2022-12-07T07:34:14;4.30;84.90
70830;SHT30;58451;51.550;7.208;2022-12-07T07:35:46;4.28;84.85
70830;SHT30;58451;51.550;7.208;2022-12-07T07:37:18;4.28;84.90
70830;SHT30;58451;51.550;7.208;2022-12-07T07:38:52;4.25;84.92
70830;SHT30;58451;51.550;7.208;2022-12-07T07:40:24;4.23;84.95
70830;SHT30;58451;51.550;7.208;2022-12-07T07:47:23;4.16;84.80
70830;SHT30;58451;51.550;7.208;2022-12-07T07:48:56;4.15;84.75
70830;SHT30;58451;51.550;7.208;2022-12-07T07:50:29;4.15;84.68
70830;SHT30;58451;51.550;7.208;2022-12-07T07:52:00;4.15;84.70
70830;SHT30;58451;51.550;7.208;2022-12-07T07:53:32;4.14;84.70
70830;SHT30;58451;51.550;7.208;2022-12-07T07:55:04;4.16;84.63
70830;SHT30;58451;51.550;7.208;2022-12-07T07:56:39;4.16;84.60
70830;SHT30;58451;51.550;7.208;2022-12-07T07:58:11;4.18;84.72
70830;SHT30;58451;51.550;7.208;2022-12-07T07:59:43;4.20;84.70
70830;SHT30;58451;51.550;7.208;2022-12-07T08:01:15;4.22;84.68
70830;SHT30;58451;51.550;7.208;2022-12-07T08:02:48;4.24;84.63
70830;SHT30;58451;51.550;7.208;2022-12-07T08:04:19;4.27;84.62
70830;SHT30;58451;51.550;7.208;2022-12-07T08:05:56;4.31;84.67
70830;SHT30;58451;51.550;7.208;2022-12-07T08:07:49;4.33;84.67
70830;SHT30;58451;51.550;7.208;2022-12-07T08:09:22;4.37;84.65
70830;SHT30;58451;51.550;7.208;2022-12-07T08:10:58;4.41;84.70
70830;SHT30;58451;51.550;7.208;2022-12-07T08:12:44;4.45;84.60
70830;SHT30;58451;51.550;7.208;2022-12-07T08:15:04;4.50;84.62
70830;SHT30;58451;51.550;7.208;2022-12-07T08:16:37;4.54;84.60
70830;SHT30;58451;51.550;7.208;2022-12-07T08:18:34;4.60;84.57
70830;SHT30;58451;51.550;7.208;2022-12-07T08:20:08;4.64;84.52
70830;SHT30;58451;51.550;7.208;2022-12-07T08:21:40;4.70;84.48
70830;SHT30;58451;51.550;7.208;2022-12-07T08:23:12;4.76;84.43
70830;SHT30;58451;51.550;7.208;2022-12-07T08:24:47;4.84;84.43
70830;SHT30;58451;51.550;7.208;2022-12-07T08:26:19;4.90;84.35
70830;SHT30;58451;51.550;7.208;2022-12-07T08:27:53;4.98;84.33
70830;SHT30;58451;51.550;7.208;2022-12-07T08:29:26;5.04;84.18
70830;SHT30;58451;51.550;7.208;2022-12-07T08:31:06;5.09;84.20
70830;SHT30;58451;51.550;7.208;2022-12-07T08:33:03;5.12;84.12
70830;SHT30;58451;51.550;7.208;2022-12-07T08:34:36;5.13;84.12
70830;SHT30;58451;51.550;7.208;2022-12-07T08:36:09;5.16;84.17
70830;SHT30;58451;51.550;7.208;2022-12-07T08:37:44;5.20;84.12
70830;SHT30;58451;51.550;7.208;2022-12-07T08:39:15;5.22;84.03
70830;SHT30;58451;51.550;7.208;2022-12-07T08:41:02;5.25;84.00
70830;SHT30;58451;51.550;7.208;2022-12-07T08:42:35;5.24;83.75
70830;SHT30;58451;51.550;7.208;2022-12-07T08:44:11;5.27;83.82
70830;SHT30;58451;51.550;7.208;2022-12-07T08:45:43;5.30;83.77
70830;SHT30;58451;51.550;7.208;2022-12-07T08:47:15;5.33;83.75
70830;SHT30;58451;51.550;7.208;2022-12-07T08:48:51;5.34;83.63
70830;SHT30;58451;51.550;7.208;2022-12-07T08:50:36;5.34;83.33
70830;SHT30;58451;51.550;7.208;2022-12-07T08:52:16;5.35;83.40
70830;SHT30;58451;51.550;7.208;2022-12-07T08:53:50;5.37;83.40
70830;SHT30;58451;51.550;7.208;2022-12-07T08:55:24;5.39;83.40
70830;SHT30;58451;51.550;7.208;2022-12-07T08:56:56;5.42;83.35
70830;SHT30;58451;51.550;7.208;2022-12-07T08:58:30;5.43;83.23
70830;SHT30;58451;51.550;7.208;2022-12-07T09:00:03;5.46;83.12
70830;SHT30;58451;51.550;7.208;2022-12-07T09:01:37;5.49;83.02
70830;SHT30;58451;51.550;7.208;2022-12-07T09:03:09;5.50;83.07
70830;SHT30;58451;51.550;7.208;2022-12-07T09:04:40;5.55;83.03
70830;SHT30;58451;51.550;7.208;2022-12-07T09:06:12;5.58;82.97
70830;SHT30;58451;51.550;7.208;2022-12-07T09:07:45;5.61;82.82
70830;SHT30;58451;51.550;7.208;2022-12-07T09:09:21;5.65;82.68
70830;SHT30;58451;51.550;7.208;2022-12-07T09:10:53;5.72;82.57
70830;SHT30;58451;51.550;7.208;2022-12-07T09:12:25;5.73;82.15
70830;SHT30;58451;51.550;7.208;2022-12-07T09:13:57;5.77;82.28
70830;SHT30;58451;51.550;7.208;2022-12-07T09:15:29;5.80;82.40
70830;SHT30;58451;51.550;7.208;2022-12-07T09:17:06;5.81;82.32
70830;SHT30;58451;51.550;7.208;2022-12-07T09:18:46;5.82;82.08
70830;SHT30;58451;51.550;7.208;2022-12-07T09:20:18;5.84;82.05
70830;SHT30;58451;51.550;7.208;2022-12-07T09:21:57;5.84;82.05
70830;SHT30;58451;51.550;7.208;2022-12-07T09:23:30;5.84;82.05
70830;SHT30;58451;51.550;7.208;2022-12-07T09:25:03;5.86;82.07
70830;SHT30;58451;51.550;7.208;2022-12-07T09:26:36;5.88;82.08
70830;SHT30;58451;51.550;7.208;2022-12-07T09:28:10;5.89;82.02
70830;SHT30;58451;51.550;7.208;2022-12-07T09:29:42;5.93;81.92
70830;SHT30;58451;51.550;7.208;2022-12-07T09:31:14;5.94;81.67
70830;SHT30;58451;51.550;7.208;2022-12-07T09:32:56;5.96;81.77
70830;SHT30;58451;51.550;7.208;2022-12-07T09:34:31;5.99;81.80
70830;SHT30;58451;51.550;7.208;2022-12-07T09:36:03;6.04;81.83
70830;SHT30;58451;51.550;7.208;2022-12-07T09:37:36;6.06;81.55
70830;SHT30;58451;51.550;7.208;2022-12-07T09:39:08;6.07;81.60
70830;SHT30;58451;51.550;7.208;2022-12-07T09:40:40;6.06;81.37
70830;SHT30;58451;51.550;7.208;2022-12-07T09:42:37;6.05;81.43
70830;SHT30;58451;51.550;7.208;2022-12-07T09:44:20;6.03;81.05
70830;SHT30;58451;51.550;7.208;2022-12-07T09:45:56;6.03;81.22
70830;SHT30;58451;51.550;7.208;2022-12-07T09:47:28;6.07;81.33
70830;SHT30;58451;51.550;7.208;2022-12-07T09:49:00;6.08;81.22
70830;SHT30;58451;51.550;7.208;2022-12-07T09:50:33;6.08;81.12
70830;SHT30;58451;51.550;7.208;2022-12-07T09:53:40;6.07;80.90
70830;SHT30;58451;51.550;7.208;2022-12-07T09:55:28;6.09;80.92
70830;SHT30;58451;51.550;7.208;2022-12-07T09:57:02;6.10;80.65
70830;SHT30;58451;51.550;7.208;2022-12-07T09:58:34;6.12;80.65
70830;SHT30;58451;51.550;7.208;2022-12-07T10:00:10;6.12;80.43
70830;SHT30;58451;51.550;7.208;2022-12-07T10:01:46;6.11;80.30
70830;SHT30;58451;51.550;7.208;2022-12-07T10:03:20;6.08;80.43
70830;SHT30;58451;51.550;7.208;2022-12-07T10:04:53;6.11;80.52
70830;SHT30;58451;51.550;7.208;2022-12-07T10:06:25;6.12;80.42
70830;SHT30;58451;51.550;7.208;2022-12-07T10:07:57;6.18;80.20
70830;SHT30;58451;51.550;7.208;2022-12-07T10:09:29;6.31;80.25
70830;SHT30;58451;51.550;7.208;2022-12-07T10:11:06;6.48;80.10
70830;SHT30;58451;51.550;7.208;2022-12-07T10:14:53;6.65;79.43
70830;SHT30;58451;51.550;7.208;2022-12-07T10:16:39;6.64;79.60
70830;SHT30;58451;51.550;7.208;2022-12-07T10:18:29;6.66;79.67
70830;SHT30;58451;51.550;7.208;2022-12-07T10:20:13;6.70;79.63
70830;SHT30;58451;51.550;7.208;2022-12-07T10:22:00;6.75;79.70
70830;SHT30;58451;51.550;7.208;2022-12-07T10:25:46;6.89;79.48
70830;SHT30;58451;51.550;7.208;2022-12-07T10:27:20;6.93;78.98
70830;SHT30;58451;51.550;7.208;2022-12-07T10:30:59;6.92;78.45
70830;SHT30;58451;51.550;7.208;2022-12-07T10:32:45;6.92;78.53
70830;SHT30;58451;51.550;7.208;2022-12-07T10:34:24;6.87;77.67
70830;SHT30;58451;51.550;7.208;2022-12-07T10:35:58;6.90;78.35
70830;SHT30;58451;51.550;7.208;2022-12-07T10:37:31;6.89;78.23
70830;SHT30;58451;51.550;7.208;2022-12-07T10:39:16;6.90;78.22
70830;SHT30;58451;51.550;7.208;2022-12-07T10:41:02;6.90;78.20
70830;SHT30;58451;51.550;7.208;2022-12-07T11:00:45;7.58;75.63
70830;SHT30;58451;51.550;7.208;2022-12-07T11:03:38;7.47;75.62
70830;SHT30;58451;51.550;7.208;2022-12-07T11:11:47;7.24;75.73
70830;SHT30;58451;51.550;7.208;2022-12-07T11:13:44;7.22;75.93
70830;SHT30;58451;51.550;7.208;2022-12-07T11:17:40;7.18;75.78
70830;SHT30;58451;51.550;7.208;2022-12-07T11:19:43;7.15;75.83
70830;SHT30;58451;51.550;7.208;2022-12-07T11:24:05;7.17;76.25
70830;SHT30;58451;51.550;7.208;2022-12-07T11:27:38;7.15;76.02
70830;SHT30;58451;51.550;7.208;2022-12-07T11:33:33;7.18;75.97
70830;SHT30;58451;51.550;7.208;2022-12-07T11:37:17;7.26;76.23
70830;SHT30;58451;51.550;7.208;2022-12-07T11:38:55;7.33;76.23
70830;SHT30;58451;51.550;7.208;2022-12-07T11:41:08;7.42;76.42
70830;SHT30;58451;51.550;7.208;2022-12-07T11:42:51;7.47;76.33
70830;SHT30;58451;51.550;7.208;2022-12-07T11:46:14;7.49;76.27
70830;SHT30;58451;51.550;7.208;2022-12-07T11:47:52;7.51;76.23
70830;SHT30;58451;51.550;7.208;2022-12-07T11:49:42;7.52;75.65
70830;SHT30;58451;51.550;7.208;2022-12-07T11:51:23;7.49;75.13